createdAt,value
2022-12-01T00:01:15.438Z,78.82
2022-12-01T00:03:42.215Z,78.93
2022-12-01T00:06:15.919Z,79.12
2022-12-01T00:09:06.770Z,79.11
2022-12-01T00:11:36.022Z,78.21
2022-12-01T00:14:03.856Z,78.45
2022-12-01T00:16:30.801Z,79.06
2022-12-01T00:18:57.489Z,78.67
2022-12-01T00:21:25.767Z,78.36
2022-12-01T00:23:55.626Z,78.48
2022-12-01T00:26:23.855Z,78.38
2022-12-01T00:28:56.037Z,78.84
2022-12-01T00:31:23.325Z,78.76
2022-12-01T00:33:50.458Z,78.90
2022-12-01T00:36:17.186Z,78.64
2022-12-01T00:38:43.880Z,78.91
2022-12-01T00:41:10.614Z,78.63
2022-12-01T00:43:37.542Z,77.69
2022-12-01T00:46:04.386Z,78.03
2022-12-01T00:48:31.185Z,77.69
2022-12-01T00:50:57.867Z,77.61
2022-12-01T00:53:24.706Z,78.79
2022-12-01T00:55:54.041Z,77.84
2022-12-01T00:58:21.622Z,78.20
2022-12-01T01:00:48.511Z,78.14
2022-12-01T01:03:15.670Z,78.30
2022-12-01T01:05:43.827Z,78.22
2022-12-01T01:08:12.700Z,77.12
2022-12-01T01:10:44.718Z,77.63
2022-12-01T01:13:12.962Z,77.22
2022-12-01T01:15:39.863Z,77.29
2022-12-01T01:18:07.185Z,77.50
2022-12-01T01:20:33.844Z,79.02
2022-12-01T01:23:00.618Z,79.02
2022-12-01T01:25:27.539Z,78.71
2022-12-01T01:27:54.245Z,78.37
2022-12-01T01:30:21.013Z,78.83
2022-12-01T01:32:47.896Z,78.05
2022-12-01T01:35:14.493Z,78.69
2022-12-01T01:37:41.166Z,78.66
2022-12-01T01:40:08.437Z,78.88
2022-12-01T01:42:35.188Z,78.92
2022-12-01T01:45:02.074Z,78.55
2022-12-01T01:47:40.673Z,78.79
2022-12-01T01:50:11.545Z,77.95
2022-12-01T01:52:53.705Z,77.95
2022-12-01T01:55:20.561Z,77.85
2022-12-01T01:57:47.472Z,77.79
2022-12-01T02:00:18.239Z,77.44
2022-12-01T02:02:47.298Z,77.26
2022-12-01T02:05:35.757Z,77.87
2022-12-01T02:08:04.388Z,78.50
2022-12-01T02:10:40.362Z,78.45
2022-12-01T02:13:06.975Z,78.24
2022-12-01T02:15:59.925Z,78.22
2022-12-01T02:18:49.823Z,78.95
2022-12-01T02:21:31.582Z,78.11
2022-12-01T02:24:00.891Z,78.50
2022-12-01T02:26:53.578Z,78.63
2022-12-01T02:29:38.371Z,76.98
2022-12-01T02:32:34.629Z,76.69
2022-12-01T02:35:11.139Z,76.64
2022-12-01T02:37:52.714Z,76.57
2022-12-01T02:40:28.410Z,77.01
2022-12-01T02:42:59.780Z,75.77
2022-12-01T02:45:31.647Z,75.40
2022-12-01T02:48:02.068Z,76.55
2022-12-01T02:50:31.140Z,76.85
2022-12-01T02:52:59.401Z,76.13
2022-12-01T02:55:26.105Z,76.76
2022-12-01T02:57:52.640Z,76.18
2022-12-01T03:00:19.628Z,75.95
2022-12-01T03:03:27.785Z,74.96
2022-12-01T03:06:24.115Z,75.54
2022-12-01T03:09:17.402Z,75.56
2022-12-01T03:11:56.717Z,74.88
2022-12-01T03:14:39.956Z,75.02
2022-12-01T03:17:19.224Z,74.76
2022-12-01T03:19:54.747Z,75.19
2022-12-01T03:22:36.004Z,75.21
2022-12-01T03:25:04.322Z,74.47
2022-12-01T03:27:35.443Z,74.61
2022-12-01T03:30:04.528Z,75.10
2022-12-01T03:32:38.096Z,75.53
2022-12-01T03:35:10.843Z,74.74
2022-12-01T03:37:42.548Z,75.68
2022-12-01T03:40:14.475Z,74.42
2022-12-01T03:42:46.575Z,74.44
2022-12-01T03:45:24.369Z,74.28
2022-12-01T03:47:51.756Z,74.08
2022-12-01T03:50:19.096Z,74.54
2022-12-01T03:53:11.588Z,74.14
2022-12-01T03:55:44.274Z,73.48
2022-12-01T03:58:16.673Z,74.20
2022-12-01T04:00:46.373Z,74.56
2022-12-01T04:03:23.024Z,74.37
2022-12-01T04:05:49.732Z,74.14
2022-12-01T04:08:16.419Z,73.91
2022-12-01T04:10:43.695Z,73.35
2022-12-01T04:13:22.586Z,74.07
2022-12-01T04:15:51.440Z,74.70
2022-12-01T04:18:18.623Z,75.01
2022-12-01T04:20:46.967Z,75.53
2022-12-01T04:23:36.426Z,76.07
2022-12-01T04:26:04.909Z,76.17
2022-12-01T04:28:31.556Z,75.14
2022-12-01T04:30:58.381Z,75.44
2022-12-01T04:33:25.015Z,76.25
2022-12-01T04:35:59.479Z,75.21
2022-12-01T04:38:30.636Z,74.26
2022-12-01T04:40:58.012Z,73.88
2022-12-01T04:43:24.782Z,75.21
2022-12-01T04:45:51.540Z,75.53
2022-12-01T04:48:18.094Z,75.09
2022-12-01T04:50:44.708Z,73.98
2022-12-01T04:53:11.285Z,75.04
2022-12-01T04:55:39.255Z,74.68
2022-12-01T04:58:06.393Z,74.79
2022-12-01T05:00:33.861Z,74.86
2022-12-01T05:03:00.568Z,74.17
2022-12-01T05:05:27.580Z,74.58
2022-12-01T05:07:54.241Z,73.51
2022-12-01T05:10:21.566Z,73.42
2022-12-01T05:12:48.353Z,73.22
2022-12-01T05:15:15.499Z,73.79
2022-12-01T05:17:42.082Z,73.84
2022-12-01T05:20:33.710Z,74.57
2022-12-01T05:23:09.719Z,74.66
2022-12-01T05:25:38.917Z,73.27
2022-12-01T05:28:06.563Z,74.80
2022-12-01T05:30:33.432Z,75.27
2022-12-01T05:33:00.259Z,75.09
2022-12-01T05:35:27.084Z,74.72
2022-12-01T05:37:53.746Z,74.61
2022-12-01T05:40:20.487Z,74.62
2022-12-01T05:42:47.083Z,73.60
2022-12-01T05:45:13.767Z,72.58
2022-12-01T05:47:40.421Z,72.82
2022-12-01T05:50:08.097Z,74.02
2022-12-01T05:52:35.395Z,74.39
2022-12-01T05:55:04.143Z,74.16
2022-12-01T05:57:32.073Z,74.30
2022-12-01T05:59:59.425Z,73.78
2022-12-01T06:02:26.914Z,73.41
2022-12-01T06:04:53.960Z,73.85
2022-12-01T06:07:22.251Z,73.54
2022-12-01T06:09:49.896Z,72.72
2022-12-01T06:12:16.774Z,72.01
2022-12-01T06:14:43.425Z,72.91
2022-12-01T06:17:10.216Z,73.69
2022-12-01T06:19:36.907Z,72.66
2022-12-01T06:22:03.962Z,73.53
2022-12-01T06:24:30.691Z,73.72
2022-12-01T06:26:57.297Z,72.34
2022-12-01T06:29:23.964Z,73.38
2022-12-01T06:31:50.622Z,73.11
2022-12-01T06:34:17.300Z,73.69
2022-12-01T06:36:43.875Z,73.52
2022-12-01T06:39:10.753Z,73.98
2022-12-01T06:41:38.118Z,73.93
2022-12-01T06:44:05.033Z,74.28
2022-12-01T06:46:31.796Z,75.07
2022-12-01T06:48:58.633Z,75.08
2022-12-01T06:51:25.267Z,76.23
2022-12-01T06:53:55.437Z,75.44
2022-12-01T06:56:23.370Z,75.57
2022-12-01T06:58:50.762Z,75.12
2022-12-01T07:01:18.825Z,74.96
2022-12-01T07:03:51.420Z,74.63
2022-12-01T07:06:18.495Z,75.80
2022-12-01T07:08:45.114Z,75.59
2022-12-01T07:11:14.076Z,74.47
2022-12-01T07:13:42.277Z,75.56
2022-12-01T07:16:09.713Z,74.69
2022-12-01T07:18:37.507Z,75.28
2022-12-01T07:21:10.328Z,75.50
2022-12-01T07:23:37.275Z,75.98
2022-12-01T07:26:07.067Z,75.42
2022-12-01T07:28:34.203Z,75.77
2022-12-01T07:31:07.733Z,75.13
2022-12-01T07:33:34.891Z,75.68
2022-12-01T07:36:02.051Z,75.46
2022-12-01T07:38:29.868Z,75.75
2022-12-01T07:41:06.050Z,75.09
2022-12-01T07:43:33.534Z,76.02
2022-12-01T07:46:18.752Z,75.27
2022-12-01T07:48:49.103Z,77.03
2022-12-01T07:51:19.428Z,76.26
2022-12-01T07:53:49.408Z,77.06
2022-12-01T07:56:17.387Z,76.20
2022-12-01T07:58:44.377Z,75.96
2022-12-01T08:01:20.484Z,76.92
2022-12-01T08:03:55.452Z,76.71
2022-12-01T08:06:22.967Z,76.85
2022-12-01T08:08:50.119Z,77.22
2022-12-01T08:11:20.347Z,76.49
2022-12-01T08:13:47.460Z,77.49
2022-12-01T08:16:17.030Z,77.73
2022-12-01T08:18:44.631Z,77.94
2022-12-01T08:21:13.852Z,78.87
2022-12-01T08:23:42.230Z,78.46
2022-12-01T08:26:13.050Z,78.67
2022-12-01T08:28:39.976Z,79.05
2022-12-01T08:31:12.710Z,80.14
2022-12-01T08:33:39.533Z,80.74
2022-12-01T08:36:06.451Z,81.08
2022-12-01T08:38:33.521Z,80.85
2022-12-01T08:41:05.351Z,81.15
2022-12-01T08:43:56.716Z,80.98
2022-12-01T08:46:18.840Z,81.38
2022-12-01T08:48:45.741Z,80.88
2022-12-01T08:51:15.364Z,80.69
2022-12-01T08:53:47.448Z,81.30
2022-12-01T08:56:18.363Z,80.86
2022-12-01T08:58:45.284Z,82.07
2022-12-01T09:01:15.177Z,82.24
2022-12-01T09:03:43.191Z,80.91
2022-12-01T09:06:13.421Z,80.77
2022-12-01T09:08:40.295Z,80.74
2022-12-01T09:11:13.045Z,80.14
2022-12-01T09:13:41.030Z,80.42
2022-12-01T09:16:11.508Z,79.98
2022-12-01T09:18:38.296Z,79.63
2022-12-01T09:21:12.016Z,80.12
2022-12-01T09:23:39.618Z,80.58
2022-12-01T09:26:12.124Z,82.01
2022-12-01T09:28:40.182Z,81.08
2022-12-01T09:31:09.223Z,82.03
2022-12-01T09:33:36.631Z,81.70
2022-12-01T09:36:05.136Z,81.04
2022-12-01T09:38:33.701Z,81.26
2022-12-01T09:41:22.541Z,80.56
2022-12-01T09:43:59.897Z,81.39
2022-12-01T09:46:33.448Z,82.07
2022-12-01T09:49:03.865Z,82.08
2022-12-01T09:51:34.895Z,81.95
2022-12-01T09:54:02.614Z,82.38
2022-12-01T09:56:32.387Z,82.98
2022-12-01T09:59:01.762Z,81.81
2022-12-01T10:01:37.897Z,82.41
2022-12-01T10:04:15.103Z,82.09
2022-12-01T10:07:04.119Z,82.18
2022-12-01T10:09:43.411Z,81.55
2022-12-01T10:12:22.544Z,80.89
2022-12-01T10:14:49.333Z,81.41
2022-12-01T10:17:27.683Z,81.85
2022-12-01T10:20:06.720Z,81.29
2022-12-01T10:22:36.360Z,82.04
2022-12-01T10:25:18.087Z,82.62
2022-12-01T10:27:50.837Z,82.75
2022-12-01T10:30:20.183Z,82.36
2022-12-01T10:33:00.090Z,82.11
2022-12-01T10:35:36.215Z,81.74
2022-12-01T10:38:12.314Z,81.31
2022-12-01T10:40:41.024Z,81.68
2022-12-01T10:43:10.436Z,80.58
2022-12-01T10:45:44.093Z,79.70
2022-12-01T10:48:22.368Z,79.46
2022-12-01T10:50:51.965Z,79.22
2022-12-01T10:53:33.565Z,78.96
2022-12-01T10:56:00.309Z,79.05
2022-12-01T10:58:27.043Z,76.75
2022-12-01T11:01:02.587Z,77.23
2022-12-01T11:03:31.770Z,77.79
2022-12-01T11:06:01.767Z,75.74
2022-12-01T11:08:41.811Z,76.09
2022-12-01T11:11:27.930Z,76.02
2022-12-01T11:13:56.708Z,77.26
2022-12-01T11:16:36.354Z,77.06
2022-12-01T11:19:09.071Z,76.15
2022-12-01T11:21:48.455Z,76.58
2022-12-01T11:24:33.696Z,76.81
2022-12-01T11:27:01.064Z,76.98
2022-12-01T11:29:40.167Z,76.60
2022-12-01T11:32:19.033Z,76.66
2022-12-01T11:34:52.103Z,75.78
2022-12-01T11:37:21.541Z,75.59
2022-12-01T11:39:50.025Z,75.26
2022-12-01T11:42:25.644Z,75.68
2022-12-01T11:45:21.598Z,74.59
2022-12-01T11:48:17.497Z,72.59
2022-12-01T11:50:59.526Z,70.53
2022-12-01T11:53:28.392Z,70.16
2022-12-01T11:56:17.500Z,70.22
2022-12-01T11:58:46.584Z,70.50
2022-12-01T12:01:29.858Z,71.32
2022-12-01T12:04:21.416Z,69.61
2022-12-01T12:07:07.589Z,70.79
2022-12-01T12:09:45.988Z,69.36
2022-12-01T12:12:37.461Z,69.80
2022-12-01T12:15:24.631Z,72.69
2022-12-01T12:18:18.472Z,70.54
2022-12-01T12:21:06.296Z,70.68
2022-12-01T12:24:14.120Z,70.74
2022-12-01T12:27:19.008Z,70.38
2022-12-01T12:29:58.143Z,67.67
2022-12-01T12:32:46.359Z,69.93
2022-12-01T12:35:33.055Z,69.53
2022-12-01T12:38:13.009Z,69.62
2022-12-01T12:41:05.536Z,69.68
2022-12-01T12:43:40.964Z,68.65
2022-12-01T12:46:11.892Z,67.91
2022-12-01T12:49:20.887Z,68.02
2022-12-01T12:51:54.441Z,67.14
2022-12-01T12:54:27.520Z,68.33
2022-12-01T12:57:01.099Z,67.63
2022-12-01T12:59:51.815Z,67.17
2022-12-01T13:02:27.054Z,66.42
2022-12-01T13:05:09.526Z,65.08
2022-12-01T13:07:51.261Z,65.31
2022-12-01T13:10:43.226Z,63.49
2022-12-01T13:13:37.677Z,64.95
2022-12-01T13:16:11.159Z,64.51
2022-12-01T13:18:50.169Z,62.87
2022-12-01T13:21:20.411Z,63.65
2022-12-01T13:23:49.200Z,65.19
2022-12-01T13:26:19.587Z,65.19
2022-12-01T13:28:51.736Z,67.56
2022-12-01T13:31:20.584Z,67.14
2022-12-01T13:34:01.983Z,65.75
2022-12-01T13:36:46.199Z,65.52
2022-12-01T13:39:20.614Z,66.51
2022-12-01T13:41:58.902Z,67.73
2022-12-01T13:44:50.483Z,66.05
2022-12-01T13:47:17.327Z,65.77
2022-12-01T13:49:49.560Z,65.77
2022-12-01T13:52:19.237Z,65.31
2022-12-01T13:55:07.699Z,66.47
2022-12-01T13:57:36.037Z,66.36
2022-12-01T14:00:03.411Z,67.52
2022-12-01T14:02:39.009Z,67.30
2022-12-01T14:05:24.613Z,68.23
2022-12-01T14:07:52.623Z,66.32
2022-12-01T14:10:32.384Z,66.97
2022-12-01T14:13:03.949Z,67.09
2022-12-01T14:15:42.664Z,65.58
2022-12-01T14:18:21.774Z,62.39
2022-12-01T14:20:49.509Z,62.34
2022-12-01T14:23:36.483Z,64.39
2022-12-01T14:26:14.526Z,64.75
2022-12-01T14:29:02.558Z,63.64
2022-12-01T14:31:35.348Z,62.70
2022-12-01T14:34:11.217Z,64.13
2022-12-01T14:37:02.016Z,64.99
2022-12-01T14:39:35.582Z,65.28
2022-12-01T14:42:11.556Z,64.62
2022-12-01T14:44:43.797Z,64.83
2022-12-01T14:47:10.651Z,65.72
2022-12-01T14:50:13.214Z,65.41
2022-12-01T14:53:03.926Z,66.79
2022-12-01T14:55:40.947Z,66.81
2022-12-01T14:58:26.765Z,67.49
2022-12-01T15:01:13.807Z,68.34
2022-12-01T15:03:45.129Z,68.50
2022-12-01T15:06:17.831Z,70.42
2022-12-01T15:08:58.392Z,68.82
2022-12-01T15:11:32.064Z,69.63
2022-12-01T15:13:59.093Z,69.31
2022-12-01T15:16:30.233Z,69.71
2022-12-01T15:18:56.907Z,70.86
2022-12-01T15:21:31.491Z,71.16
2022-12-01T15:24:25.948Z,71.49
2022-12-01T15:27:03.328Z,72.75
2022-12-01T15:29:42.908Z,73.27
2022-12-01T15:32:15.577Z,72.94
2022-12-01T15:34:46.400Z,72.53
2022-12-01T15:37:24.699Z,73.01
2022-12-01T15:40:43.439Z,73.07
2022-12-01T15:43:03.425Z,73.21
2022-12-01T15:45:30.274Z,73.60
2022-12-01T15:47:56.903Z,75.11
2022-12-01T15:50:26.177Z,74.80
2022-12-01T15:52:52.934Z,74.68
2022-12-01T15:55:29.968Z,74.62
2022-12-01T15:57:58.700Z,74.88
2022-12-01T16:00:26.520Z,74.49
2022-12-01T16:02:58.360Z,74.51
2022-12-01T16:05:33.183Z,74.34
2022-12-01T16:08:21.415Z,74.58
2022-12-01T16:11:10.761Z,74.07
2022-12-01T16:13:55.367Z,74.52
2022-12-01T16:16:28.652Z,74.15
2022-12-01T16:19:11.575Z,74.66
2022-12-01T16:21:47.365Z,74.20
2022-12-01T16:24:24.820Z,74.53
2022-12-01T16:26:54.592Z,75.18
2022-12-01T16:29:25.887Z,75.31
2022-12-01T16:32:21.613Z,75.40
2022-12-01T16:34:47.712Z,75.31
2022-12-01T16:37:15.385Z,75.54
2022-12-01T16:39:42.331Z,75.03
2022-12-01T16:42:14.449Z,75.02
2022-12-01T16:44:42.723Z,74.95
2022-12-01T16:47:14.666Z,74.90
2022-12-01T16:49:41.579Z,75.01
2022-12-01T16:52:42.585Z,75.29
2022-12-01T16:54:55.019Z,74.44
2022-12-01T16:57:21.633Z,74.31
2022-12-01T16:59:48.279Z,74.77
2022-12-01T17:02:15.097Z,74.31
2022-12-01T17:04:41.973Z,74.89
2022-12-01T17:07:08.582Z,75.07
2022-12-01T17:09:35.688Z,75.09
2022-12-01T17:12:02.251Z,75.52
2022-12-01T17:14:29.285Z,74.89
2022-12-01T17:16:57.441Z,75.41
2022-12-01T17:19:24.240Z,74.66
2022-12-01T17:21:50.833Z,75.31
2022-12-01T17:24:19.184Z,75.64
2022-12-01T17:26:46.245Z,75.61
2022-12-01T17:29:12.905Z,76.03
2022-12-01T17:31:39.613Z,75.28
2022-12-01T17:34:07.736Z,75.29
2022-12-01T17:36:35.453Z,75.33
2022-12-01T17:39:02.809Z,75.98
2022-12-01T17:41:36.471Z,76.05
2022-12-01T17:44:05.500Z,75.25
2022-12-01T17:46:33.392Z,75.28
2022-12-01T17:49:01.764Z,75.38
2022-12-01T17:51:28.512Z,75.55
2022-12-01T17:53:55.431Z,75.79
2022-12-01T17:56:22.132Z,75.15
2022-12-01T17:58:50.429Z,75.34
2022-12-01T18:01:20.780Z,75.11
2022-12-01T18:03:50.740Z,74.55
2022-12-01T18:06:19.812Z,75.22
2022-12-01T18:08:47.133Z,75.16
2022-12-01T18:11:16.139Z,75.76
2022-12-01T18:13:47.876Z,75.62
2022-12-01T18:16:20.322Z,75.18
2022-12-01T18:18:47.520Z,74.93
2022-12-01T18:21:16.744Z,75.68
2022-12-01T18:23:52.745Z,75.23
2022-12-01T18:26:21.904Z,75.92
2022-12-01T18:29:02.955Z,76.28
2022-12-01T18:31:30.439Z,76.43
2022-12-01T18:33:59.154Z,76.20
2022-12-01T18:36:27.053Z,75.90
2022-12-01T18:38:54.670Z,75.84
2022-12-01T18:41:21.406Z,76.33
2022-12-01T18:43:48.347Z,75.91
2022-12-01T18:46:16.893Z,75.59
2022-12-01T18:48:45.844Z,75.53
2022-12-01T18:51:13.343Z,76.01
2022-12-01T18:53:40.291Z,76.15
2022-12-01T18:56:11.693Z,76.10
2022-12-01T18:58:39.499Z,76.24
2022-12-01T19:01:32.530Z,76.30
2022-12-01T19:04:00.403Z,76.22
2022-12-01T19:06:28.736Z,75.64
2022-12-01T19:09:00.260Z,76.13
2022-12-01T19:11:28.252Z,76.32
2022-12-01T19:13:58.289Z,76.70
2022-12-01T19:16:25.797Z,76.34
2022-12-01T19:18:53.315Z,76.22
2022-12-01T19:21:20.404Z,76.74
2022-12-01T19:23:47.812Z,76.67
2022-12-01T19:26:18.687Z,77.03
2022-12-01T19:28:46.097Z,77.06
2022-12-01T19:31:20.127Z,77.27
2022-12-01T19:33:47.344Z,77.06
2022-12-01T19:36:21.832Z,77.50
2022-12-01T19:38:49.102Z,77.90
2022-12-01T19:41:17.192Z,77.95
2022-12-01T19:43:44.074Z,77.91
2022-12-01T19:46:17.575Z,77.90
2022-12-01T19:48:45.565Z,77.95
2022-12-01T19:51:20.812Z,78.41
2022-12-01T19:53:47.830Z,78.41
2022-12-01T19:56:14.773Z,77.92
2022-12-01T19:58:41.850Z,78.21
2022-12-01T20:01:11.589Z,78.09
2022-12-01T20:03:40.574Z,78.28
2022-12-01T20:06:13.567Z,78.30
2022-12-01T20:08:40.939Z,78.46
2022-12-01T20:11:08.781Z,78.44
2022-12-01T20:13:39.115Z,78.08
2022-12-01T20:16:18.634Z,77.99
2022-12-01T20:18:45.901Z,78.18
2022-12-01T20:21:19.016Z,77.99
2022-12-01T20:23:48.281Z,78.12
2022-12-01T20:26:17.213Z,78.56
2022-12-01T20:28:45.688Z,78.67
2022-12-01T20:31:15.919Z,78.38
2022-12-01T20:33:42.841Z,78.43
2022-12-01T20:36:09.796Z,78.14
2022-12-01T20:38:37.350Z,77.90
2022-12-01T20:41:05.024Z,78.06
2022-12-01T20:43:32.889Z,78.43
2022-12-01T20:46:00.272Z,79.01
2022-12-01T20:48:27.044Z,78.95
2022-12-01T20:50:54.415Z,78.26
2022-12-01T20:53:21.784Z,78.08
2022-12-01T20:55:49.079Z,78.84
2022-12-01T20:58:15.758Z,78.67
2022-12-01T21:00:44.327Z,78.98
2022-12-01T21:03:11.871Z,79.41
2022-12-01T21:05:40.423Z,79.37
2022-12-01T21:08:10.788Z,79.31
2022-12-01T21:10:44.753Z,79.08
2022-12-01T21:13:39.167Z,79.32
2022-12-01T21:16:27.427Z,79.69
2022-12-01T21:19:00.234Z,79.49
2022-12-01T21:21:29.294Z,78.99
2022-12-01T21:24:07.934Z,79.06
2022-12-01T21:26:39.360Z,79.35
2022-12-01T21:29:18.671Z,79.55
2022-12-01T21:31:46.784Z,79.32
2022-12-01T21:34:18.791Z,79.46
2022-12-01T21:36:48.164Z,79.35
2022-12-01T21:39:18.434Z,79.40
2022-12-01T21:41:45.291Z,79.40
2022-12-01T21:44:20.368Z,79.90
2022-12-01T21:46:50.029Z,79.64
2022-12-01T21:49:22.483Z,80.09
2022-12-01T21:51:52.842Z,80.05
2022-12-01T21:54:21.639Z,80.13
2022-12-01T21:56:57.103Z,80.64
2022-12-01T21:59:24.556Z,80.11
2022-12-01T22:01:54.839Z,80.43
2022-12-01T22:04:25.337Z,80.38
2022-12-01T22:06:54.623Z,80.69
2022-12-01T22:09:31.457Z,80.80
2022-12-01T22:12:07.242Z,81.16
2022-12-01T22:14:35.687Z,81.13
2022-12-01T22:17:05.320Z,81.08
2022-12-01T22:19:33.253Z,80.06
2022-12-01T22:22:01.714Z,80.43
2022-12-01T22:24:35.345Z,81.02
2022-12-01T22:27:26.363Z,80.45
2022-12-01T22:30:17.151Z,80.40
2022-12-01T22:32:58.658Z,80.03
2022-12-01T22:35:44.818Z,80.87
2022-12-01T22:38:15.511Z,80.93
2022-12-01T22:40:48.329Z,80.70
2022-12-01T22:43:17.963Z,80.64
2022-12-01T22:46:00.126Z,80.02
2022-12-01T22:48:40.715Z,80.25
2022-12-01T22:51:13.551Z,80.56
2022-12-01T22:53:42.045Z,80.61
2022-12-01T22:56:32.476Z,80.80
2022-12-01T22:58:59.474Z,80.72
2022-12-01T23:01:27.696Z,80.39
2022-12-01T23:04:17.230Z,81.09
2022-12-01T23:06:57.282Z,81.03
2022-12-01T23:09:28.716Z,81.37
2022-12-01T23:12:00.639Z,81.14
2022-12-01T23:14:28.614Z,81.27
2022-12-01T23:17:07.277Z,81.09
2022-12-01T23:19:35.053Z,81.05
2022-12-01T23:22:02.014Z,81.48
2022-12-01T23:24:33.706Z,81.18
2022-12-01T23:27:00.917Z,81.38
2022-12-01T23:29:27.901Z,81.52
2022-12-01T23:31:55.347Z,82.17
2022-12-01T23:34:22.044Z,81.99
2022-12-01T23:36:50.155Z,81.56
2022-12-01T23:39:18.439Z,82.08
2022-12-01T23:41:51.194Z,81.46
2022-12-01T23:44:23.143Z,81.86
2022-12-01T23:46:53.601Z,82.01
2022-12-01T23:49:26.006Z,81.53
2022-12-01T23:51:55.610Z,81.63
2022-12-01T23:54:22.153Z,81.30
2022-12-01T23:56:52.462Z,81.24
2022-12-01T23:59:20.279Z,81.04
